sensor_id;sensor_type;location;lat;lon;timestamp;temperature;humidity
60473;DHT22;46318;52.716;6.444;2023-06-01T00:02:06;12.60;75.40
60473;DHT22;46318;52.716;6.444;2023-06-01T00:04:32;12.60;75.50
60473;DHT22;46318;52.716;6.444;2023-06-01T00:06:57;12.60;75.50
60473;DHT22;46318;52.716;6.444;2023-06-01T00:09:27;12.60;75.60
60473;DHT22;46318;52.716;6.444;2023-06-01T00:11:53;12.60;75.70
60473;DHT22;46318;52.716;6.444;2023-06-01T00:14:18;12.60;75.80
60473;DHT22;46318;52.716;6.444;2023-06-01T00:16:50;12.60;76.00
60473;DHT22;46318;52.716;6.444;2023-06-01T00:19:17;12.50;75.90
60473;DHT22;46318;52.716;6.444;2023-06-01T00:21:44;12.50;75.90
60473;DHT22;46318;52.716;6.444;2023-06-01T00:24:09;12.50;76.00
60473;DHT22;46318;52.716;6.444;2023-06-01T00:26:36;12.40;76.00
60473;DHT22;46318;52.716;6.444;2023-06-01T00:29:02;12.50;75.90
60473;DHT22;46318;52.716;6.444;2023-06-01T00:31:28;12.40;76.00
60473;DHT22;46318;52.716;6.444;2023-06-01T00:33:54;12.40;76.00
60473;DHT22;46318;52.716;6.444;2023-06-01T00:36:20;12.40;76.10
60473;DHT22;46318;52.716;6.444;2023-06-01T00:38:46;12.40;76.30
60473;DHT22;46318;52.716;6.444;2023-06-01T00:41:12;12.30;76.50
60473;DHT22;46318;52.716;6.444;2023-06-01T00:43:38;12.30;76.50
60473;DHT22;46318;52.716;6.444;2023-06-01T00:46:05;12.30;76.60
60473;DHT22;46318;52.716;6.444;2023-06-01T00:48:31;12.30;76.70
60473;DHT22;46318;52.716;6.444;2023-06-01T00:50:57;12.20;76.70
60473;DHT22;46318;52.716;6.444;2023-06-01T00:53:25;12.20;76.70
60473;DHT22;46318;52.716;6.444;2023-06-01T00:55:51;12.20;76.90
60473;DHT22;46318;52.716;6.444;2023-06-01T00:58:17;12.30;76.80
60473;DHT22;46318;52.716;6.444;2023-06-01T01:00:43;12.30;76.70
60473;DHT22;46318;52.716;6.444;2023-06-01T01:03:09;12.30;76.90
60473;DHT22;46318;52.716;6.444;2023-06-01T01:05:39;12.30;77.00
60473;DHT22;46318;52.716;6.444;2023-06-01T01:08:35;12.30;76.90
60473;DHT22;46318;52.716;6.444;2023-06-01T01:11:18;12.30;77.30
60473;DHT22;46318;52.716;6.444;2023-06-01T01:16:29;12.30;77.00
60473;DHT22;46318;52.716;6.444;2023-06-01T01:22:43;12.30;77.30
60473;DHT22;46318;52.716;6.444;2023-06-01T01:29:00;12.30;77.00
60473;DHT22;46318;52.716;6.444;2023-06-01T01:31:28;12.20;76.90
60473;DHT22;46318;52.716;6.444;2023-06-01T01:33:56;12.20;76.80
60473;DHT22;46318;52.716;6.444;2023-06-01T01:36:23;12.20;76.80
60473;DHT22;46318;52.716;6.444;2023-06-01T01:38:49;12.20;76.90
60473;DHT22;46318;52.716;6.444;2023-06-01T01:41:15;12.30;77.00
60473;DHT22;46318;52.716;6.444;2023-06-01T01:43:42;12.20;77.00
60473;DHT22;46318;52.716;6.444;2023-06-01T01:46:26;12.20;76.90
60473;DHT22;46318;52.716;6.444;2023-06-01T01:49:14;12.20;77.10
60473;DHT22;46318;52.716;6.444;2023-06-01T01:52:08;12.20;76.90
60473;DHT22;46318;52.716;6.444;2023-06-01T01:54:44;12.10;76.90
60473;DHT22;46318;52.716;6.444;2023-06-01T01:57:15;12.10;76.70
60473;DHT22;46318;52.716;6.444;2023-06-01T01:59:43;12.10;76.70
60473;DHT22;46318;52.716;6.444;2023-06-01T02:02:13;12.10;76.70
60473;DHT22;46318;52.716;6.444;2023-06-01T02:04:40;12.10;76.80
60473;DHT22;46318;52.716;6.444;2023-06-01T02:07:07;12.10;76.90
60473;DHT22;46318;52.716;6.444;2023-06-01T02:09:33;12.10;76.90
60473;DHT22;46318;52.716;6.444;2023-06-01T02:11:59;12.10;76.90
60473;DHT22;46318;52.716;6.444;2023-06-01T02:14:25;12.10;77.00
60473;DHT22;46318;52.716;6.444;2023-06-01T02:16:51;12.10;77.00
60473;DHT22;46318;52.716;6.444;2023-06-01T02:19:19;12.10;77.10
60473;DHT22;46318;52.716;6.444;2023-06-01T02:21:45;12.10;77.00
60473;DHT22;46318;52.716;6.444;2023-06-01T02:24:11;12.00;77.00
60473;DHT22;46318;52.716;6.444;2023-06-01T02:26:38;12.00;77.00
60473;DHT22;46318;52.716;6.444;2023-06-01T02:29:04;12.00;76.90
60473;DHT22;46318;52.716;6.444;2023-06-01T02:31:34;12.00;77.00
60473;DHT22;46318;52.716;6.444;2023-06-01T02:34:00;11.90;77.10
60473;DHT22;46318;52.716;6.444;2023-06-01T02:36:27;11.90;77.10
60473;DHT22;46318;52.716;6.444;2023-06-01T02:38:55;11.90;77.00
60473;DHT22;46318;52.716;6.444;2023-06-01T02:41:21;11.90;77.00
60473;DHT22;46318;52.716;6.444;2023-06-01T02:43:47;11.90;77.00
60473;DHT22;46318;52.716;6.444;2023-06-01T02:46:16;11.80;77.10
60473;DHT22;46318;52.716;6.444;2023-06-01T02:48:43;11.90;77.20
60473;DHT22;46318;52.716;6.444;2023-06-01T02:51:10;11.90;77.30
60473;DHT22;46318;52.716;6.444;2023-06-01T02:53:35;11.90;77.20
60473;DHT22;46318;52.716;6.444;2023-06-01T02:56:01;11.90;77.20
60473;DHT22;46318;52.716;6.444;2023-06-01T02:58:27;11.90;77.40
60473;DHT22;46318;52.716;6.444;2023-06-01T03:00:57;11.90;77.40
60473;DHT22;46318;52.716;6.444;2023-06-01T03:03:26;11.80;77.30
60473;DHT22;46318;52.716;6.444;2023-06-01T03:05:53;11.80;77.00
60473;DHT22;46318;52.716;6.444;2023-06-01T03:08:19;11.80;77.00
60473;DHT22;46318;52.716;6.444;2023-06-01T03:10:45;11.80;76.80
60473;DHT22;46318;52.716;6.444;2023-06-01T03:13:11;11.80;76.80
60473;DHT22;46318;52.716;6.444;2023-06-01T03:15:37;11.80;76.80
60473;DHT22;46318;52.716;6.444;2023-06-01T03:18:04;11.80;76.80
60473;DHT22;46318;52.716;6.444;2023-06-01T03:20:34;11.80;76.90
60473;DHT22;46318;52.716;6.444;2023-06-01T03:23:00;11.80;76.90
60473;DHT22;46318;52.716;6.444;2023-06-01T03:25:26;11.80;77.00
60473;DHT22;46318;52.716;6.444;2023-06-01T03:27:52;11.80;77.00
60473;DHT22;46318;52.716;6.444;2023-06-01T03:30:18;11.80;77.10
60473;DHT22;46318;52.716;6.444;2023-06-01T03:32:44;11.80;77.10
60473;DHT22;46318;52.716;6.444;2023-06-01T03:35:11;11.90;77.10
60473;DHT22;46318;52.716;6.444;2023-06-01T03:37:40;11.80;77.20
60473;DHT22;46318;52.716;6.444;2023-06-01T03:40:08;11.80;77.10
60473;DHT22;46318;52.716;6.444;2023-06-01T03:42:41;11.80;77.10
60473;DHT22;46318;52.716;6.444;2023-06-01T03:45:09;11.80;77.20
60473;DHT22;46318;52.716;6.444;2023-06-01T03:47:36;11.80;77.10
60473;DHT22;46318;52.716;6.444;2023-06-01T03:50:02;11.80;77.10
60473;DHT22;46318;52.716;6.444;2023-06-01T03:52:29;11.70;77.20
60473;DHT22;46318;52.716;6.444;2023-06-01T03:54:57;11.80;77.20
60473;DHT22;46318;52.716;6.444;2023-06-01T03:57:25;11.80;77.30
60473;DHT22;46318;52.716;6.444;2023-06-01T03:59:52;11.80;77.20
60473;DHT22;46318;52.716;6.444;2023-06-01T04:02:18;11.80;77.20
60473;DHT22;46318;52.716;6.444;2023-06-01T04:04:45;11.80;77.30
60473;DHT22;46318;52.716;6.444;2023-06-01T04:07:12;11.80;77.30
60473;DHT22;46318;52.716;6.444;2023-06-01T04:09:44;11.80;77.50
60473;DHT22;46318;52.716;6.444;2023-06-01T04:12:13;11.80;77.40
60473;DHT22;46318;52.716;6.444;2023-06-01T04:14:40;11.80;77.60
60473;DHT22;46318;52.716;6.444;2023-06-01T04:17:06;11.80;77.50
60473;DHT22;46318;52.716;6.444;2023-06-01T04:19:32;11.80;77.50
60473;DHT22;46318;52.716;6.444;2023-06-01T04:22:00;11.80;77.40
60473;DHT22;46318;52.716;6.444;2023-06-01T04:24:26;11.70;77.50
60473;DHT22;46318;52.716;6.444;2023-06-01T04:26:52;11.70;77.50
60473;DHT22;46318;52.716;6.444;2023-06-01T04:29:19;11.80;77.50
60473;DHT22;46318;52.716;6.444;2023-06-01T04:31:47;11.70;77.50
60473;DHT22;46318;52.716;6.444;2023-06-01T04:34:13;11.70;77.40
60473;DHT22;46318;52.716;6.444;2023-06-01T04:36:39;11.70;77.50
60473;DHT22;46318;52.716;6.444;2023-06-01T04:39:08;11.70;77.60
60473;DHT22;46318;52.716;6.444;2023-06-01T04:41:34;11.70;77.60
60473;DHT22;46318;52.716;6.444;2023-06-01T04:44:01;11.70;77.70
60473;DHT22;46318;52.716;6.444;2023-06-01T04:46:31;11.70;77.80
60473;DHT22;46318;52.716;6.444;2023-06-01T04:48:58;11.70;77.80
60473;DHT22;46318;52.716;6.444;2023-06-01T04:51:26;11.70;77.90
60473;DHT22;46318;52.716;6.444;2023-06-01T04:53:53;11.70;78.10
60473;DHT22;46318;52.716;6.444;2023-06-01T04:56:21;11.80;78.00
60473;DHT22;46318;52.716;6.444;2023-06-01T04:58:53;11.80;78.10
60473;DHT22;46318;52.716;6.444;2023-06-01T05:01:24;11.80;78.10
60473;DHT22;46318;52.716;6.444;2023-06-01T05:03:52;11.80;78.20
60473;DHT22;46318;52.716;6.444;2023-06-01T05:06:20;11.80;78.20
60473;DHT22;46318;52.716;6.444;2023-06-01T05:08:46;11.80;78.10
60473;DHT22;46318;52.716;6.444;2023-06-01T05:11:13;11.80;78.20
60473;DHT22;46318;52.716;6.444;2023-06-01T05:13:40;11.80;78.20
60473;DHT22;46318;52.716;6.444;2023-06-01T05:16:08;11.80;78.20
60473;DHT22;46318;52.716;6.444;2023-06-01T05:18:34;11.80;78.20
60473;DHT22;46318;52.716;6.444;2023-06-01T05:21:01;11.80;78.20
60473;DHT22;46318;52.716;6.444;2023-06-01T05:23:29;11.90;78.20
60473;DHT22;46318;52.716;6.444;2023-06-01T05:25:55;11.90;78.40
60473;DHT22;46318;52.716;6.444;2023-06-01T05:28:29;11.90;78.20
60473;DHT22;46318;52.716;6.444;2023-06-01T05:30:55;11.90;78.40
60473;DHT22;46318;52.716;6.444;2023-06-01T05:33:21;11.90;78.30
60473;DHT22;46318;52.716;6.444;2023-06-01T05:35:47;11.90;78.30
60473;DHT22;46318;52.716;6.444;2023-06-01T05:38:13;11.90;78.30
60473;DHT22;46318;52.716;6.444;2023-06-01T05:40:39;11.90;78.50
60473;DHT22;46318;52.716;6.444;2023-06-01T05:43:05;11.90;78.60
60473;DHT22;46318;52.716;6.444;2023-06-01T05:45:32;11.90;78.60
60473;DHT22;46318;52.716;6.444;2023-06-01T05:47:58;11.90;78.70
60473;DHT22;46318;52.716;6.444;2023-06-01T05:50:24;11.90;78.80
60473;DHT22;46318;52.716;6.444;2023-06-01T05:52:50;11.90;79.00
60473;DHT22;46318;52.716;6.444;2023-06-01T05:55:17;11.90;79.10
60473;DHT22;46318;52.716;6.444;2023-06-01T05:57:45;12.00;79.10
60473;DHT22;46318;52.716;6.444;2023-06-01T06:00:14;12.00;79.00
60473;DHT22;46318;52.716;6.444;2023-06-01T06:02:45;12.00;79.20
60473;DHT22;46318;52.716;6.444;2023-06-01T06:05:11;12.00;79.10
60473;DHT22;46318;52.716;6.444;2023-06-01T06:07:37;12.00;79.30
60473;DHT22;46318;52.716;6.444;2023-06-01T06:10:04;12.00;79.30
60473;DHT22;46318;52.716;6.444;2023-06-01T06:12:30;12.00;79.30
60473;DHT22;46318;52.716;6.444;2023-06-01T06:14:55;12.10;79.30
60473;DHT22;46318;52.716;6.444;2023-06-01T06:17:21;12.00;79.40
60473;DHT22;46318;52.716;6.444;2023-06-01T06:19:47;12.10;79.40
60473;DHT22;46318;52.716;6.444;2023-06-01T06:22:15;12.10;79.20
60473;DHT22;46318;52.716;6.444;2023-06-01T06:24:41;12.10;79.00
60473;DHT22;46318;52.716;6.444;2023-06-01T06:27:10;12.10;78.90
60473;DHT22;46318;52.716;6.444;2023-06-01T06:29:36;12.10;78.80
60473;DHT22;46318;52.716;6.444;2023-06-01T06:32:02;12.10;78.70
60473;DHT22;46318;52.716;6.444;2023-06-01T06:34:28;12.20;78.60
60473;DHT22;46318;52.716;6.444;2023-06-01T06:37:05;12.20;78.70
60473;DHT22;46318;52.716;6.444;2023-06-01T06:39:32;12.20;78.70
60473;DHT22;46318;52.716;6.444;2023-06-01T06:41:59;12.20;78.70
60473;DHT22;46318;52.716;6.444;2023-06-01T06:44:27;12.20;78.60
60473;DHT22;46318;52.716;6.444;2023-06-01T06:46:53;12.20;78.70
60473;DHT22;46318;52.716;6.444;2023-06-01T06:49:19;12.20;78.80
60473;DHT22;46318;52.716;6.444;2023-06-01T06:51:45;12.20;78.80
60473;DHT22;46318;52.716;6.444;2023-06-01T06:54:12;12.20;78.80
60473;DHT22;46318;52.716;6.444;2023-06-01T06:56:38;12.20;78.80
60473;DHT22;46318;52.716;6.444;2023-06-01T06:59:04;12.30;78.70
60473;DHT22;46318;52.716;6.444;2023-06-01T07:01:29;12.30;78.70
60473;DHT22;46318;52.716;6.444;2023-06-01T07:03:55;12.30;78.70
60473;DHT22;46318;52.716;6.444;2023-06-01T07:06:21;12.40;78.60
60473;DHT22;46318;52.716;6.444;2023-06-01T07:08:48;12.40;78.60
60473;DHT22;46318;52.716;6.444;2023-06-01T07:11:15;12.40;78.40
60473;DHT22;46318;52.716;6.444;2023-06-01T07:13:42;12.50;78.20
60473;DHT22;46318;52.716;6.444;2023-06-01T07:16:08;12.40;77.80
60473;DHT22;46318;52.716;6.444;2023-06-01T07:18:34;12.50;77.60
60473;DHT22;46318;52.716;6.444;2023-06-01T07:21:01;12.50;77.50
60473;DHT22;46318;52.716;6.444;2023-06-01T07:23:27;12.50;77.30
60473;DHT22;46318;52.716;6.444;2023-06-01T07:25:52;12.50;77.30
60473;DHT22;46318;52.716;6.444;2023-06-01T07:28:18;12.50;77.20
60473;DHT22;46318;52.716;6.444;2023-06-01T07:30:44;12.50;77.10
60473;DHT22;46318;52.716;6.444;2023-06-01T07:33:10;12.60;77.10
60473;DHT22;46318;52.716;6.444;2023-06-01T07:35:37;12.60;77.00
60473;DHT22;46318;52.716;6.444;2023-06-01T07:38:03;12.60;76.90
60473;DHT22;46318;52.716;6.444;2023-06-01T07:40:29;12.60;76.90
60473;DHT22;46318;52.716;6.444;2023-06-01T07:42:56;12.70;76.90
60473;DHT22;46318;52.716;6.444;2023-06-01T07:45:22;12.70;76.80
60473;DHT22;46318;52.716;6.444;2023-06-01T07:47:48;12.80;76.80
60473;DHT22;46318;52.716;6.444;2023-06-01T07:50:13;12.80;76.70
60473;DHT22;46318;52.716;6.444;2023-06-01T07:52:39;12.80;76.50
60473;DHT22;46318;52.716;6.444;2023-06-01T07:55:07;12.90;76.40
60473;DHT22;46318;52.716;6.444;2023-06-01T07:57:35;13.00;76.20
60473;DHT22;46318;52.716;6.444;2023-06-01T08:00:02;13.00;76.10
60473;DHT22;46318;52.716;6.444;2023-06-01T08:02:33;13.10;75.80
60473;DHT22;46318;52.716;6.444;2023-06-01T08:04:59;13.10;75.10
60473;DHT22;46318;52.716;6.444;2023-06-01T08:07:25;13.10;75.20
60473;DHT22;46318;52.716;6.444;2023-06-01T08:09:56;13.20;74.90
60473;DHT22;46318;52.716;6.444;2023-06-01T08:12:23;13.20;74.80
60473;DHT22;46318;52.716;6.444;2023-06-01T08:14:51;13.30;74.60
60473;DHT22;46318;52.716;6.444;2023-06-01T08:17:17;13.30;74.40
60473;DHT22;46318;52.716;6.444;2023-06-01T08:19:44;13.40;74.10
60473;DHT22;46318;52.716;6.444;2023-06-01T08:22:11;13.40;73.90
60473;DHT22;46318;52.716;6.444;2023-06-01T08:24:39;13.50;73.60
60473;DHT22;46318;52.716;6.444;2023-06-01T08:27:22;13.50;73.40
60473;DHT22;46318;52.716;6.444;2023-06-01T08:29:49;13.60;72.90
60473;DHT22;46318;52.716;6.444;2023-06-01T08:32:16;13.60;73.00
60473;DHT22;46318;52.716;6.444;2023-06-01T08:34:46;13.60;72.90
60473;DHT22;46318;52.716;6.444;2023-06-01T08:37:13;13.60;72.60
60473;DHT22;46318;52.716;6.444;2023-06-01T08:39:42;13.70;72.50
60473;DHT22;46318;52.716;6.444;2023-06-01T08:42:13;13.70;72.50
60473;DHT22;46318;52.716;6.444;2023-06-01T08:44:44;13.70;72.50
60473;DHT22;46318;52.716;6.444;2023-06-01T08:47:10;13.80;72.70
60473;DHT22;46318;52.716;6.444;2023-06-01T08:49:41;13.80;72.90
60473;DHT22;46318;52.716;6.444;2023-06-01T08:52:11;13.90;72.80
60473;DHT22;46318;52.716;6.444;2023-06-01T08:54:39;13.90;72.70
60473;DHT22;46318;52.716;6.444;2023-06-01T08:57:07;14.00;72.60
60473;DHT22;46318;52.716;6.444;2023-06-01T08:59:36;14.00;72.30
60473;DHT22;46318;52.716;6.444;2023-06-01T09:02:03;14.00;72.10
60473;DHT22;46318;52.716;6.444;2023-06-01T09:04:29;14.10;72.20
60473;DHT22;46318;52.716;6.444;2023-06-01T09:06:56;14.10;72.10
60473;DHT22;46318;52.716;6.444;2023-06-01T09:09:23;14.20;72.30
60473;DHT22;46318;52.716;6.444;2023-06-01T09:12:19;14.20;72.10
60473;DHT22;46318;52.716;6.444;2023-06-01T09:14:45;14.30;71.70
60473;DHT22;46318;52.716;6.444;2023-06-01T09:17:21;14.30;71.50
60473;DHT22;46318;52.716;6.444;2023-06-01T09:19:52;14.40;71.40
60473;DHT22;46318;52.716;6.444;2023-06-01T09:22:21;14.40;71.40
60473;DHT22;46318;52.716;6.444;2023-06-01T09:24:59;14.50;71.40
60473;DHT22;46318;52.716;6.444;2023-06-01T09:27:26;14.60;71.30
60473;DHT22;46318;52.716;6.444;2023-06-01T09:29:56;14.60;71.50
60473;DHT22;46318;52.716;6.444;2023-06-01T09:32:25;14.60;71.40
60473;DHT22;46318;52.716;6.444;2023-06-01T09:34:51;14.70;71.50
60473;DHT22;46318;52.716;6.444;2023-06-01T09:37:17;14.70;71.40
60473;DHT22;46318;52.716;6.444;2023-06-01T09:39:42;14.80;71.50
60473;DHT22;46318;52.716;6.444;2023-06-01T09:42:09;14.80;71.60
60473;DHT22;46318;52.716;6.444;2023-06-01T09:44:37;14.80;71.60
60473;DHT22;46318;52.716;6.444;2023-06-01T09:47:10;14.80;71.70
60473;DHT22;46318;52.716;6.444;2023-06-01T09:49:44;14.90;71.60
60473;DHT22;46318;52.716;6.444;2023-06-01T09:52:12;14.90;71.50
60473;DHT22;46318;52.716;6.444;2023-06-01T09:54:46;14.90;71.60
60473;DHT22;46318;52.716;6.444;2023-06-01T09:57:22;15.00;71.60
60473;DHT22;46318;52.716;6.444;2023-06-01T09:59:49;15.00;71.60
60473;DHT22;46318;52.716;6.444;2023-06-01T10:02:24;15.10;71.60
60473;DHT22;46318;52.716;6.444;2023-06-01T10:04:55;15.10;71.90
60473;DHT22;46318;52.716;6.444;2023-06-01T10:07:26;15.10;72.00
60473;DHT22;46318;52.716;6.444;2023-06-01T10:09:58;15.10;72.20
60473;DHT22;46318;52.716;6.444;2023-06-01T10:12:25;15.10;72.30
60473;DHT22;46318;52.716;6.444;2023-06-01T10:14:51;15.10;72.50
60473;DHT22;46318;52.716;6.444;2023-06-01T10:17:24;15.10;72.70
60473;DHT22;46318;52.716;6.444;2023-06-01T10:19:51;15.00;72.90
60473;DHT22;46318;52.716;6.444;2023-06-01T10:22:17;15.10;72.90
60473;DHT22;46318;52.716;6.444;2023-06-01T10:24:43;15.10;73.00
60473;DHT22;46318;52.716;6.444;2023-06-01T10:27:24;15.20;72.80
60473;DHT22;46318;52.716;6.444;2023-06-01T10:29:55;15.20;72.80
60473;DHT22;46318;52.716;6.444;2023-06-01T10:35:06;15.20;72.60
60473;DHT22;46318;52.716;6.444;2023-06-01T10:37:33;15.20;72.70
60473;DHT22;46318;52.716;6.444;2023-06-01T10:40:20;15.20;72.70
60473;DHT22;46318;52.716;6.444;2023-06-01T10:42:47;15.20;72.50
60473;DHT22;46318;52.716;6.444;2023-06-01T10:45:39;15.10;72.40
60473;DHT22;46318;52.716;6.444;2023-06-01T10:48:12;15.10;72.10
60473;DHT22;46318;52.716;6.444;2023-06-01T10:50:39;15.10;72.30
60473;DHT22;46318;52.716;6.444;2023-06-01T10:53:29;15.00;72.50
60473;DHT22;46318;52.716;6.444;2023-06-01T11:01:44;15.10;72.10
60473;DHT22;46318;52.716;6.444;2023-06-01T11:04:12;15.10;71.60
60473;DHT22;46318;52.716;6.444;2023-06-01T11:06:40;15.10;71.40
60473;DHT22;46318;52.716;6.444;2023-06-01T11:09:11;15.10;71.10
60473;DHT22;46318;52.716;6.444;2023-06-01T11:14:19;15.20;69.90
60473;DHT22;46318;52.716;6.444;2023-06-01T11:16:46;15.20;69.80
60473;DHT22;46318;52.716;6.444;2023-06-01T11:19:26;15.30;69.60
60473;DHT22;46318;52.716;6.444;2023-06-01T11:22:00;15.30;69.20
60473;DHT22;46318;52.716;6.444;2023-06-01T11:24:36;15.40;69.30
60473;DHT22;46318;52.716;6.444;2023-06-01T11:27:10;15.50;69.00
60473;DHT22;46318;52.716;6.444;2023-06-01T11:29:36;15.50;69.10
60473;DHT22;46318;52.716;6.444;2023-06-01T11:32:04;15.50;69.00
60473;DHT22;46318;52.716;6.444;2023-06-01T11:34:34;15.60;68.90
60473;DHT22;46318;52.716;6.444;2023-06-01T11:37:04;15.60;69.00
60473;DHT22;46318;52.716;6.444;2023-06-01T11:39:31;15.60;68.80
60473;DHT22;46318;52.716;6.444;2023-06-01T11:42:11;15.60;68.40
60473;DHT22;46318;52.716;6.444;2023-06-01T11:44:39;15.70;68.10
60473;DHT22;46318;52.716;6.444;2023-06-01T11:47:07;15.70;68.20
60473;DHT22;46318;52.716;6.444;2023-06-01T11:52:09;15.80;68.00
60473;DHT22;46318;52.716;6.444;2023-06-01T11:54:36;15.80;68.00
60473;DHT22;46318;52.716;6.444;2023-06-01T11:57:03;15.90;67.40
60473;DHT22;46318;52.716;6.444;2023-06-01T11:59:44;15.90;67.20
60473;DHT22;46318;52.716;6.444;2023-06-01T12:02:18;15.90;67.00
60473;DHT22;46318;52.716;6.444;2023-06-01T12:05:03;15.90;67.40
60473;DHT22;46318;52.716;6.444;2023-06-01T12:07:45;15.90;66.90
60473;DHT22;46318;52.716;6.444;2023-06-01T12:10:18;16.00;67.00
60473;DHT22;46318;52.716;6.444;2023-06-01T12:12:45;16.00;66.90
60473;DHT22;46318;52.716;6.444;2023-06-01T12:15:14;16.00;66.80
60473;DHT22;46318;52.716;6.444;2023-06-01T12:20:33;16.10;66.00
60473;DHT22;46318;52.716;6.444;2023-06-01T12:23:15;16.10;66.00
60473;DHT22;46318;52.716;6.444;2023-06-01T12:28:17;16.10;65.60
60473;DHT22;46318;52.716;6.444;2023-06-01T12:30:43;16.20;65.70
60473;DHT22;46318;52.716;6.444;2023-06-01T12:33:33;16.20;65.10
60473;DHT22;46318;52.716;6.444;2023-06-01T12:36:02;16.20;64.50
60473;DHT22;46318;52.716;6.444;2023-06-01T12:38:49;16.20;64.50
60473;DHT22;46318;52.716;6.444;2023-06-01T12:41:16;16.30;64.80
60473;DHT22;46318;52.716;6.444;2023-06-01T12:43:47;16.30;64.90
60473;DHT22;46318;52.716;6.444;2023-06-01T12:48:45;16.40;64.40
60473;DHT22;46318;52.716;6.444;2023-06-01T12:51:12;16.40;64.30
60473;DHT22;46318;52.716;6.444;2023-06-01T12:53:39;16.50;64.20
60473;DHT22;46318;52.716;6.444;2023-06-01T12:56:09;16.50;64.00
60473;DHT22;46318;52.716;6.444;2023-06-01T12:58:35;16.60;63.80
60473;DHT22;46318;52.716;6.444;2023-06-01T13:01:01;16.60;63.50
60473;DHT22;46318;52.716;6.444;2023-06-01T13:03:28;16.60;63.40
60473;DHT22;46318;52.716;6.444;2023-06-01T13:05:55;16.70;63.50
60473;DHT22;46318;52.716;6.444;2023-06-01T13:08:22;16.80;63.30
60473;DHT22;46318;52.716;6.444;2023-06-01T13:10:48;16.80;63.00
60473;DHT22;46318;52.716;6.444;2023-06-01T13:13:15;16.90;62.90
60473;DHT22;46318;52.716;6.444;2023-06-01T13:15:45;16.90;62.80
60473;DHT22;46318;52.716;6.444;2023-06-01T13:18:12;16.90;62.70
60473;DHT22;46318;52.716;6.444;2023-06-01T13:20:38;16.90;62.60
60473;DHT22;46318;52.716;6.444;2023-06-01T13:23:07;16.90;62.70
60473;DHT22;46318;52.716;6.444;2023-06-01T13:25:35;16.90;62.60
60473;DHT22;46318;52.716;6.444;2023-06-01T13:28:01;17.00;62.20
60473;DHT22;46318;52.716;6.444;2023-06-01T13:30:27;17.00;62.30
60473;DHT22;46318;52.716;6.444;2023-06-01T13:32:55;17.00;62.40
60473;DHT22;46318;52.716;6.444;2023-06-01T13:35:23;17.00;62.30
60473;DHT22;46318;52.716;6.444;2023-06-01T13:37:50;17.00;62.00
60473;DHT22;46318;52.716;6.444;2023-06-01T13:40:15;17.00;61.80
60473;DHT22;46318;52.716;6.444;2023-06-01T13:42:48;17.00;61.90
60473;DHT22;46318;52.716;6.444;2023-06-01T13:45:16;17.10;61.80
60473;DHT22;46318;52.716;6.444;2023-06-01T13:47:43;17.10;61.60
60473;DHT22;46318;52.716;6.444;2023-06-01T13:50:10;17.10;61.50
60473;DHT22;46318;52.716;6.444;2023-06-01T13:52:38;17.10;61.50
60473;DHT22;46318;52.716;6.444;2023-06-01T13:55:08;17.00;61.30
60473;DHT22;46318;52.716;6.444;2023-06-01T13:57:35;17.00;61.30
60473;DHT22;46318;52.716;6.444;2023-06-01T14:00:04;17.10;61.20
60473;DHT22;46318;52.716;6.444;2023-06-01T14:02:31;17.10;60.90
60473;DHT22;46318;52.716;6.444;2023-06-01T14:04:56;17.10;61.00
60473;DHT22;46318;52.716;6.444;2023-06-01T14:07:23;17.10;60.80
60473;DHT22;46318;52.716;6.444;2023-06-01T14:09:48;17.10;60.70
60473;DHT22;46318;52.716;6.444;2023-06-01T14:12:14;17.20;60.70
60473;DHT22;46318;52.716;6.444;2023-06-01T14:14:40;17.20;60.70
60473;DHT22;46318;52.716;6.444;2023-06-01T14:17:06;17.20;60.80
60473;DHT22;46318;52.716;6.444;2023-06-01T14:19:32;17.20;60.60
60473;DHT22;46318;52.716;6.444;2023-06-01T14:21:58;17.20;61.30
60473;DHT22;46318;52.716;6.444;2023-06-01T14:24:24;17.20;61.20
60473;DHT22;46318;52.716;6.444;2023-06-01T14:26:50;17.20;61.70
60473;DHT22;46318;52.716;6.444;2023-06-01T14:29:16;17.10;62.00
60473;DHT22;46318;52.716;6.444;2023-06-01T14:31:42;17.10;62.00
60473;DHT22;46318;52.716;6.444;2023-06-01T14:34:08;17.10;61.90
60473;DHT22;46318;52.716;6.444;2023-06-01T14:36:34;17.00;62.00
60473;DHT22;46318;52.716;6.444;2023-06-01T14:38:59;17.00;61.70
60473;DHT22;46318;52.716;6.444;2023-06-01T14:41:25;17.00;61.60
60473;DHT22;46318;52.716;6.444;2023-06-01T14:43:51;17.00;61.80
60473;DHT22;46318;52.716;6.444;2023-06-01T14:46:17;17.00;61.80
60473;DHT22;46318;52.716;6.444;2023-06-01T14:48:46;17.00;61.80
60473;DHT22;46318;52.716;6.444;2023-06-01T14:51:12;17.00;61.70
60473;DHT22;46318;52.716;6.444;2023-06-01T14:53:38;17.00;61.60
60473;DHT22;46318;52.716;6.444;2023-06-01T14:56:05;17.00;61.60
60473;DHT22;46318;52.716;6.444;2023-06-01T14:58:31;17.00;61.60
60473;DHT22;46318;52.716;6.444;2023-06-01T15:00:57;16.90;61.60
60473;DHT22;46318;52.716;6.444;2023-06-01T15:03:24;16.90;61.70
60473;DHT22;46318;52.716;6.444;2023-06-01T15:05:50;16.90;61.90
60473;DHT22;46318;52.716;6.444;2023-06-01T15:08:17;16.90;61.90
60473;DHT22;46318;52.716;6.444;2023-06-01T15:10:47;16.90;62.10
60473;DHT22;46318;52.716;6.444;2023-06-01T15:13:13;16.80;62.20
60473;DHT22;46318;52.716;6.444;2023-06-01T15:15:40;16.80;62.30
60473;DHT22;46318;52.716;6.444;2023-06-01T15:18:06;16.70;62.40
60473;DHT22;46318;52.716;6.444;2023-06-01T15:20:32;16.70;62.50
60473;DHT22;46318;52.716;6.444;2023-06-01T15:22:58;16.70;62.70
60473;DHT22;46318;52.716;6.444;2023-06-01T15:25:24;16.60;62.60
60473;DHT22;46318;52.716;6.444;2023-06-01T15:27:50;16.60;62.90
60473;DHT22;46318;52.716;6.444;2023-06-01T15:30:16;16.60;62.90
60473;DHT22;46318;52.716;6.444;2023-06-01T15:32:43;16.50;62.90
60473;DHT22;46318;52.716;6.444;2023-06-01T15:35:09;16.50;62.80
60473;DHT22;46318;52.716;6.444;2023-06-01T15:37:35;16.40;62.80
60473;DHT22;46318;52.716;6.444;2023-06-01T15:40:02;16.40;63.00
60473;DHT22;46318;52.716;6.444;2023-06-01T15:42:29;16.30;63.20
60473;DHT22;46318;52.716;6.444;2023-06-01T15:44:55;16.30;63.20
60473;DHT22;46318;52.716;6.444;2023-06-01T15:47:20;16.30;63.00
60473;DHT22;46318;52.716;6.444;2023-06-01T15:49:46;16.40;62.90
60473;DHT22;46318;52.716;6.444;2023-06-01T15:52:12;16.40;62.70
60473;DHT22;46318;52.716;6.444;2023-06-01T15:54:38;16.40;62.40
60473;DHT22;46318;52.716;6.444;2023-06-01T15:57:04;16.40;62.30
60473;DHT22;46318;52.716;6.444;2023-06-01T15:59:30;16.40;62.30
60473;DHT22;46318;52.716;6.444;2023-06-01T16:01:56;16.40;62.20
60473;DHT22;46318;52.716;6.444;2023-06-01T16:04:22;16.40;62.40
60473;DHT22;46318;52.716;6.444;2023-06-01T16:06:48;16.40;62.00
60473;DHT22;46318;52.716;6.444;2023-06-01T16:09:14;16.40;61.90